createdAt,value
2022-09-15T00:00:50.355Z,15.03
2022-09-15T00:03:43.301Z,15.01
2022-09-15T00:06:15.733Z,15.00
2022-09-15T00:08:47.608Z,14.98
2022-09-15T00:11:23.297Z,14.95
2022-09-15T00:13:56.453Z,14.94
2022-09-15T00:16:30.990Z,14.93
2022-09-15T00:19:04.240Z,14.93
2022-09-15T00:21:40.841Z,14.93
2022-09-15T00:24:12.833Z,14.92
2022-09-15T00:26:44.630Z,14.91
2022-09-15T00:29:16.621Z,14.90
2022-09-15T00:31:48.555Z,14.89
2022-09-15T00:34:20.334Z,14.89
2022-09-15T00:36:52.126Z,14.88
2022-09-15T00:39:24.073Z,14.88
2022-09-15T00:41:55.910Z,14.89
2022-09-15T00:44:50.904Z,14.90
2022-09-15T00:47:24.825Z,14.90
2022-09-15T00:50:00.159Z,14.92
2022-09-15T00:52:37.299Z,14.95
2022-09-15T00:55:13.935Z,14.97
2022-09-15T00:57:54.831Z,15.00
2022-09-15T01:00:29.232Z,15.00
2022-09-15T01:03:01.886Z,15.01
2022-09-15T01:05:38.063Z,15.00
2022-09-15T01:08:15.195Z,15.00
2022-09-15T01:10:47.035Z,14.98
2022-09-15T01:13:18.805Z,14.98
2022-09-15T01:16:02.535Z,14.99
2022-09-15T01:18:45.412Z,15.01
2022-09-15T01:21:32.230Z,15.02
2022-09-15T01:24:47.011Z,15.01
2022-09-15T01:27:52.394Z,15.02
2022-09-15T01:30:25.082Z,15.01
2022-09-15T01:33:09.825Z,15.02
2022-09-15T01:35:50.755Z,15.02
2022-09-15T01:38:32.098Z,15.02
2022-09-15T01:41:10.409Z,15.04
2022-09-15T01:43:49.128Z,15.05
2022-09-15T01:46:25.053Z,15.08
2022-09-15T01:49:00.819Z,15.08
2022-09-15T01:51:34.441Z,15.08
2022-09-15T01:54:08.986Z,15.06
2022-09-15T01:56:42.032Z,15.05
2022-09-15T01:59:13.929Z,15.04
2022-09-15T02:01:51.952Z,15.04
2022-09-15T02:04:29.735Z,15.04
2022-09-15T02:07:11.758Z,15.03
2022-09-15T02:09:52.196Z,15.02
2022-09-15T02:12:34.563Z,15.02
2022-09-15T02:15:11.889Z,15.00
2022-09-15T02:17:47.649Z,14.98
2022-09-15T02:20:28.722Z,14.97
2022-09-15T02:23:08.941Z,14.96
2022-09-15T02:25:45.614Z,14.96
2022-09-15T02:28:20.199Z,14.95
2022-09-15T02:30:55.250Z,14.93
2022-09-15T02:33:32.826Z,14.91
2022-09-15T02:36:05.835Z,14.89
2022-09-15T02:38:43.469Z,14.89
2022-09-15T02:41:15.457Z,14.89
2022-09-15T02:43:50.372Z,14.87
2022-09-15T02:46:24.585Z,14.86
2022-09-15T02:48:56.977Z,14.86
2022-09-15T02:51:29.447Z,14.86
2022-09-15T02:54:01.413Z,14.86
2022-09-15T02:56:33.468Z,14.87
2022-09-15T02:59:05.314Z,14.87
2022-09-15T03:01:39.168Z,14.86
2022-09-15T03:04:11.135Z,14.85
2022-09-15T03:06:43.642Z,14.84
2022-09-15T03:09:15.906Z,14.83
2022-09-15T03:11:47.733Z,14.81
2022-09-15T03:14:19.625Z,14.81
2022-09-15T03:16:51.464Z,14.78
2022-09-15T03:19:23.404Z,14.74
2022-09-15T03:21:55.219Z,14.72
2022-09-15T03:24:27.192Z,14.71
2022-09-15T03:26:59.048Z,14.69
2022-09-15T03:29:31.534Z,14.69
2022-09-15T03:32:04.052Z,14.68
2022-09-15T03:34:35.888Z,14.67
2022-09-15T03:37:08.671Z,14.66
2022-09-15T03:39:40.713Z,14.64
2022-09-15T03:42:12.519Z,14.63
2022-09-15T03:44:44.364Z,14.61
2022-09-15T03:47:16.278Z,14.60
2022-09-15T03:49:48.193Z,14.59
2022-09-15T03:52:19.969Z,14.58
2022-09-15T03:54:52.181Z,14.58
2022-09-15T03:57:23.996Z,14.57
2022-09-15T03:59:55.899Z,14.56
2022-09-15T04:02:28.029Z,14.55
2022-09-15T04:04:59.914Z,14.53
2022-09-15T04:07:31.907Z,14.53
2022-09-15T04:10:04.785Z,14.51
2022-09-15T04:12:36.774Z,14.51
2022-09-15T04:15:11.840Z,14.49
2022-09-15T04:17:43.806Z,14.46
2022-09-15T04:20:17.262Z,14.44
2022-09-15T04:22:49.052Z,14.44
2022-09-15T04:25:20.967Z,14.43
2022-09-15T04:27:52.908Z,14.43
2022-09-15T04:30:25.376Z,14.42
2022-09-15T04:32:57.183Z,14.41
2022-09-15T04:35:29.376Z,14.40
2022-09-15T04:38:01.284Z,14.39
2022-09-15T04:40:33.913Z,14.40
2022-09-15T04:43:06.894Z,14.41
2022-09-15T04:45:38.704Z,14.40
2022-09-15T04:48:10.596Z,14.40
2022-09-15T04:50:42.708Z,14.40
2022-09-15T04:53:14.653Z,14.40
2022-09-15T04:55:46.567Z,14.39
2022-09-15T04:58:18.332Z,14.37
2022-09-15T05:00:50.690Z,14.34
2022-09-15T05:03:22.518Z,14.35
2022-09-15T05:05:54.627Z,14.34
2022-09-15T05:08:26.432Z,14.32
2022-09-15T05:11:03.810Z,14.34
2022-09-15T05:13:36.949Z,14.35
2022-09-15T05:16:12.063Z,14.37
2022-09-15T05:18:45.911Z,14.39
2022-09-15T05:21:20.818Z,14.41
2022-09-15T05:23:53.247Z,14.43
2022-09-15T05:26:27.146Z,14.44
2022-09-15T05:28:59.617Z,14.46
2022-09-15T05:31:34.030Z,14.48
2022-09-15T05:34:07.398Z,14.52
2022-09-15T05:36:39.344Z,14.55
2022-09-15T05:39:11.188Z,14.57
2022-09-15T05:41:43.168Z,14.59
2022-09-15T05:44:14.986Z,14.63
2022-09-15T05:46:47.118Z,14.68
2022-09-15T05:49:19.154Z,14.72
2022-09-15T05:51:51.239Z,14.76
2022-09-15T05:54:23.155Z,14.79
2022-09-15T05:56:54.956Z,14.82
2022-09-15T05:59:27.057Z,14.84
2022-09-15T06:01:59.297Z,14.86
2022-09-15T06:04:31.328Z,14.89
2022-09-15T06:07:03.162Z,14.92
2022-09-15T06:09:35.209Z,14.94
2022-09-15T06:12:07.613Z,14.97
2022-09-15T06:14:39.747Z,15.02
2022-09-15T06:17:11.935Z,15.05
2022-09-15T06:19:43.849Z,15.11
2022-09-15T06:22:15.861Z,15.15
2022-09-15T06:24:47.713Z,15.20
2022-09-15T06:27:20.642Z,15.25
2022-09-15T06:29:53.432Z,15.29
2022-09-15T06:32:25.304Z,15.36
2022-09-15T06:34:57.230Z,15.45
2022-09-15T06:37:29.091Z,15.57
2022-09-15T06:40:00.988Z,15.76
2022-09-15T06:42:32.969Z,16.02
2022-09-15T06:45:05.280Z,16.17
2022-09-15T06:47:37.437Z,16.32
2022-09-15T06:50:11.850Z,16.52
2022-09-15T06:52:45.345Z,16.69
2022-09-15T06:55:17.734Z,16.79
2022-09-15T06:57:50.795Z,16.90
2022-09-15T07:00:22.969Z,17.01
2022-09-15T07:02:55.262Z,17.11
2022-09-15T07:05:27.501Z,17.19
2022-09-15T07:07:59.662Z,17.37
2022-09-15T07:10:31.452Z,17.86
2022-09-15T07:13:03.347Z,18.53
2022-09-15T07:15:35.376Z,19.08
2022-09-15T07:18:07.886Z,19.57
2022-09-15T07:20:42.036Z,20.02
2022-09-15T07:23:14.013Z,20.41
2022-09-15T07:25:48.284Z,20.70
2022-09-15T07:28:20.339Z,20.85
2022-09-15T07:30:54.466Z,21.11
2022-09-15T07:33:26.430Z,21.45
2022-09-15T07:35:58.515Z,21.88
2022-09-15T07:38:30.390Z,22.27
2022-09-15T07:41:08.148Z,22.24
2022-09-15T07:43:56.970Z,22.07
2022-09-15T07:46:33.197Z,22.19
2022-09-15T07:49:06.949Z,22.96
2022-09-15T07:51:38.778Z,23.98
2022-09-15T07:54:10.608Z,24.97
2022-09-15T07:56:42.506Z,25.91
2022-09-15T07:59:14.587Z,26.73
2022-09-15T08:01:46.829Z,27.09
2022-09-15T08:04:18.813Z,27.55
2022-09-15T08:06:52.131Z,27.67
2022-09-15T08:09:24.150Z,27.48
2022-09-15T08:11:56.000Z,27.71
2022-09-15T08:14:28.087Z,28.19
2022-09-15T08:17:03.007Z,28.69
2022-09-15T08:19:36.206Z,29.42
2022-09-15T08:22:08.079Z,30.21
2022-09-15T08:24:40.579Z,30.78
2022-09-15T08:27:12.480Z,31.18
2022-09-15T08:29:44.564Z,31.45
2022-09-15T08:32:16.613Z,31.60
2022-09-15T08:34:48.585Z,31.65
2022-09-15T08:37:20.590Z,31.82
2022-09-15T08:39:52.864Z,32.13
2022-09-15T08:42:26.954Z,32.43
2022-09-15T08:45:04.230Z,32.65
2022-09-15T08:47:41.961Z,32.79
2022-09-15T08:50:24.067Z,32.74
2022-09-15T08:52:59.866Z,32.77
2022-09-15T08:55:39.849Z,32.79
2022-09-15T08:58:18.063Z,32.91
2022-09-15T09:00:52.980Z,32.88
2022-09-15T09:03:48.860Z,32.29
2022-09-15T09:06:33.477Z,32.17
2022-09-15T09:09:20.752Z,32.13
2022-09-15T09:12:20.602Z,31.95
2022-09-15T09:15:09.675Z,31.46
2022-09-15T09:17:55.944Z,31.46
2022-09-15T09:20:44.416Z,31.53
2022-09-15T09:23:19.589Z,31.70
2022-09-15T09:25:52.691Z,31.73
2022-09-15T09:28:32.586Z,31.76
2022-09-15T09:31:08.159Z,31.75
2022-09-15T09:33:47.957Z,31.69
2022-09-15T09:36:20.850Z,31.52
2022-09-15T09:38:53.035Z,31.44
2022-09-15T09:41:35.674Z,31.54
2022-09-15T09:44:12.132Z,31.55
2022-09-15T09:46:44.414Z,31.48
2022-09-15T09:49:22.978Z,31.27
2022-09-15T09:51:56.131Z,31.07
2022-09-15T09:54:28.771Z,30.86
2022-09-15T09:57:24.319Z,30.52
2022-09-15T09:59:56.968Z,30.27
2022-09-15T10:02:29.860Z,30.27
2022-09-15T10:05:21.466Z,30.30
2022-09-15T10:07:53.374Z,29.63
2022-09-15T10:10:32.436Z,29.02
2022-09-15T10:13:05.395Z,28.63
2022-09-15T10:15:43.573Z,28.40
2022-09-15T10:18:32.246Z,27.94
2022-09-15T10:21:06.783Z,27.40
2022-09-15T10:23:39.101Z,27.15
2022-09-15T10:26:32.230Z,26.65
2022-09-15T10:29:16.396Z,26.26
2022-09-15T10:31:49.214Z,26.00
2022-09-15T10:34:32.693Z,25.96
2022-09-15T10:37:15.581Z,25.75
2022-09-15T10:39:54.942Z,25.32
2022-09-15T10:42:50.037Z,24.74
2022-09-15T10:45:31.701Z,24.26
2022-09-15T10:48:27.815Z,23.94
2022-09-15T10:51:06.371Z,23.52
2022-09-15T10:53:57.457Z,23.16
2022-09-15T10:56:35.016Z,22.85
2022-09-15T10:59:21.808Z,22.62
2022-09-15T11:02:13.274Z,22.42
2022-09-15T11:04:57.311Z,22.18
2022-09-15T11:07:40.301Z,21.86
2022-09-15T11:10:20.866Z,21.59
2022-09-15T11:13:02.255Z,21.35
2022-09-15T11:15:49.662Z,21.19
2022-09-15T11:18:56.311Z,21.06
2022-09-15T11:21:37.458Z,20.99
2022-09-15T11:24:29.287Z,20.95
2022-09-15T11:27:08.167Z,21.02
2022-09-15T11:29:53.591Z,21.02
2022-09-15T11:32:30.961Z,20.96
2022-09-15T11:35:09.259Z,20.90
2022-09-15T11:37:47.020Z,20.84
2022-09-15T11:40:26.315Z,20.78
2022-09-15T11:43:01.687Z,20.74
2022-09-15T11:45:39.336Z,20.72
2022-09-15T11:48:16.822Z,20.66
2022-09-15T11:50:53.441Z,20.64
2022-09-15T11:53:34.815Z,20.58
2022-09-15T11:56:16.052Z,20.52
2022-09-15T11:59:01.347Z,20.42
2022-09-15T12:01:39.711Z,20.33
2022-09-15T12:04:18.675Z,20.19
2022-09-15T12:06:56.240Z,20.01
2022-09-15T12:09:29.258Z,19.85
2022-09-15T12:12:06.874Z,19.80
2022-09-15T12:14:43.280Z,19.80
2022-09-15T12:17:22.571Z,19.81
2022-09-15T12:20:01.600Z,19.79
2022-09-15T12:22:42.520Z,19.78
2022-09-15T12:25:20.917Z,19.74
2022-09-15T12:28:23.396Z,19.72
2022-09-15T12:31:16.063Z,19.85
2022-09-15T12:33:54.712Z,19.86
2022-09-15T12:36:51.289Z,19.78
2022-09-15T12:39:38.023Z,19.73
2022-09-15T12:42:15.227Z,19.65
2022-09-15T12:44:49.528Z,19.58
2022-09-15T12:47:29.494Z,19.54
2022-09-15T12:50:06.745Z,19.49
2022-09-15T12:52:48.446Z,19.45
2022-09-15T12:55:25.139Z,19.41
2022-09-15T12:58:00.266Z,19.35
2022-09-15T13:00:45.578Z,19.30
2022-09-15T13:03:53.979Z,19.28
2022-09-15T13:06:28.090Z,19.25
2022-09-15T13:09:26.908Z,19.24
2022-09-15T13:11:59.574Z,19.25
2022-09-15T13:14:39.303Z,19.23
2022-09-15T13:17:18.403Z,19.22
2022-09-15T13:19:54.829Z,19.19
2022-09-15T13:22:30.344Z,19.15
2022-09-15T13:25:15.835Z,19.11
2022-09-15T13:27:50.445Z,19.09
2022-09-15T13:30:43.084Z,19.07
2022-09-15T13:39:44.861Z,19.02
2022-09-15T13:42:39.934Z,19.01
2022-09-15T13:45:44.115Z,18.98
2022-09-15T13:48:33.653Z,18.94
2022-09-15T13:51:16.685Z,18.87
2022-09-15T13:53:52.884Z,18.80
2022-09-15T13:56:30.103Z,18.78
2022-09-15T13:59:11.745Z,18.74
2022-09-15T14:01:46.145Z,18.68
2022-09-15T14:04:21.933Z,18.67
2022-09-15T14:07:00.057Z,18.67
2022-09-15T14:09:37.530Z,18.73
2022-09-15T14:12:15.016Z,18.83
2022-09-15T14:14:52.332Z,18.86
2022-09-15T14:17:26.189Z,18.86
2022-09-15T14:20:00.634Z,18.84
2022-09-15T14:22:34.649Z,18.82
2022-09-15T14:25:16.643Z,18.79
2022-09-15T14:27:50.876Z,18.77
2022-09-15T14:30:26.488Z,18.76
2022-09-15T14:33:01.768Z,18.75
2022-09-15T14:35:38.605Z,18.74
2022-09-15T14:38:20.492Z,18.73
2022-09-15T14:40:56.894Z,18.71
2022-09-15T14:43:32.904Z,18.76
2022-09-15T14:46:14.843Z,18.83
2022-09-15T14:48:46.912Z,18.91
2022-09-15T14:51:23.552Z,18.95
2022-09-15T14:53:59.994Z,18.98
2022-09-15T14:56:36.636Z,18.99
2022-09-15T14:59:12.989Z,18.99
2022-09-15T15:01:52.028Z,18.98
2022-09-15T15:04:29.722Z,18.98
2022-09-15T15:07:07.914Z,18.95
2022-09-15T15:09:47.070Z,18.91
2022-09-15T15:12:25.789Z,18.87
2022-09-15T15:15:00.097Z,18.84
2022-09-15T15:17:37.811Z,18.81
2022-09-15T15:20:23.211Z,18.79
2022-09-15T15:23:18.078Z,18.76
2022-09-15T15:25:50.620Z,18.73
2022-09-15T15:28:34.906Z,18.67
2022-09-15T15:31:25.897Z,18.59
2022-09-15T15:34:00.266Z,18.51
2022-09-15T15:36:34.030Z,18.43
2022-09-15T15:39:08.006Z,18.36
2022-09-15T15:41:43.255Z,18.31
2022-09-15T15:44:29.067Z,18.26
2022-09-15T15:47:03.363Z,18.21
2022-09-15T15:49:39.287Z,18.16
2022-09-15T15:52:23.297Z,18.11
2022-09-15T15:54:55.163Z,18.07
2022-09-15T15:57:32.985Z,18.04
2022-09-15T16:00:12.057Z,18.00
2022-09-15T16:02:43.921Z,17.98
2022-09-15T16:05:16.505Z,17.93
2022-09-15T16:07:50.736Z,17.88
2022-09-15T16:10:25.689Z,17.84
2022-09-15T16:12:57.550Z,17.79
2022-09-15T16:15:29.764Z,17.76
2022-09-15T16:18:02.008Z,17.73
2022-09-15T16:20:34.037Z,17.71
2022-09-15T16:23:06.407Z,17.68
2022-09-15T16:25:48.089Z,17.64
2022-09-15T16:28:20.616Z,17.60
2022-09-15T16:30:52.469Z,17.54
2022-09-15T16:33:25.051Z,17.50
2022-09-15T16:36:03.913Z,17.46
2022-09-15T16:38:36.990Z,17.42
2022-09-15T16:41:16.468Z,17.38
2022-09-15T16:43:49.244Z,17.33
2022-09-15T16:46:21.754Z,17.28
2022-09-15T16:48:53.869Z,17.22
2022-09-15T16:51:30.981Z,17.17
2022-09-15T16:54:03.962Z,17.11
2022-09-15T16:56:35.798Z,17.06
2022-09-15T16:59:07.617Z,17.00
2022-09-15T17:01:39.838Z,16.95
2022-09-15T17:04:16.620Z,16.88
2022-09-15T17:06:48.468Z,16.82
2022-09-15T17:09:22.891Z,16.78
2022-09-15T17:11:56.779Z,16.74
2022-09-15T17:14:28.621Z,16.70
2022-09-15T17:17:00.724Z,16.66
2022-09-15T17:19:32.885Z,16.61
2022-09-15T17:22:04.836Z,16.57
2022-09-15T17:24:36.658Z,16.54
2022-09-15T17:27:08.584Z,16.50
2022-09-15T17:29:40.500Z,16.47
2022-09-15T17:32:12.688Z,16.44
2022-09-15T17:34:46.390Z,16.41
2022-09-15T17:37:18.217Z,16.39
2022-09-15T17:39:50.587Z,16.36
2022-09-15T17:42:22.645Z,16.33
2022-09-15T17:44:54.475Z,16.30
2022-09-15T17:47:26.339Z,16.27
2022-09-15T17:49:58.636Z,16.23
2022-09-15T17:52:31.539Z,16.21
2022-09-15T17:55:03.351Z,16.17
2022-09-15T17:57:35.633Z,16.15
2022-09-15T18:00:09.846Z,16.11
2022-09-15T18:02:43.441Z,16.07
2022-09-15T18:05:27.536Z,16.03
2022-09-15T18:08:02.515Z,15.97
2022-09-15T18:10:36.178Z,15.89
2022-09-15T18:13:08.381Z,15.84
2022-09-15T18:15:40.367Z,15.79
2022-09-15T18:18:17.024Z,15.73
2022-09-15T18:20:50.987Z,15.66
2022-09-15T18:23:25.168Z,15.62
2022-09-15T18:25:57.136Z,15.58
2022-09-15T18:28:29.329Z,15.55
2022-09-15T18:31:01.383Z,15.54
2022-09-15T18:33:33.490Z,15.52
2022-09-15T18:36:09.397Z,15.51
2022-09-15T18:38:41.865Z,15.50
2022-09-15T18:41:13.840Z,15.49
2022-09-15T18:43:49.167Z,15.50
2022-09-15T18:46:21.286Z,15.50
2022-09-15T18:48:53.232Z,15.51
2022-09-15T18:51:40.871Z,15.51
2022-09-15T18:54:16.945Z,15.51
2022-09-15T18:56:48.950Z,15.51
2022-09-15T18:59:20.926Z,15.51
2022-09-15T19:01:52.927Z,15.51
2022-09-15T19:04:28.374Z,15.50
2022-09-15T19:07:02.974Z,15.49
2022-09-15T19:09:35.225Z,15.48
2022-09-15T19:12:07.458Z,15.49
2022-09-15T19:14:42.188Z,15.50
2022-09-15T19:17:17.335Z,15.51
2022-09-15T19:19:49.539Z,15.51
2022-09-15T19:22:21.402Z,15.52
2022-09-15T19:24:53.285Z,15.53
2022-09-15T19:27:25.387Z,15.53
2022-09-15T19:29:57.189Z,15.53
2022-09-15T19:32:29.097Z,15.53
2022-09-15T19:35:01.055Z,15.52
2022-09-15T19:37:33.442Z,15.50
2022-09-15T19:40:07.791Z,15.50
2022-09-15T19:42:43.069Z,15.48
2022-09-15T19:45:16.013Z,15.48
2022-09-15T19:47:47.999Z,15.47
2022-09-15T19:50:20.166Z,15.45
2022-09-15T19:52:54.314Z,15.44
2022-09-15T19:55:29.831Z,15.41
2022-09-15T19:58:02.432Z,15.40
2022-09-15T20:00:34.420Z,15.38
2022-09-15T20:03:06.691Z,15.36
2022-09-15T20:05:38.821Z,15.33
2022-09-15T20:08:10.920Z,15.32
2022-09-15T20:10:42.918Z,15.32
2022-09-15T20:13:16.331Z,15.31
2022-09-15T20:16:00.110Z,15.29
2022-09-15T20:18:33.554Z,15.28
2022-09-15T20:21:08.383Z,15.28
2022-09-15T20:23:40.185Z,15.26
2022-09-15T20:26:14.256Z,15.25
2022-09-15T20:28:47.644Z,15.22
2022-09-15T20:31:21.614Z,15.20
2022-09-15T20:33:54.696Z,15.18
2022-09-15T20:36:29.954Z,15.14
2022-09-15T20:39:03.348Z,15.10
2022-09-15T20:41:35.684Z,15.07
2022-09-15T20:44:09.566Z,15.04
2022-09-15T20:46:43.061Z,15.00
2022-09-15T20:49:15.859Z,14.95
2022-09-15T20:51:47.799Z,14.91
2022-09-15T20:54:19.746Z,14.86
2022-09-15T20:56:51.670Z,14.82
2022-09-15T20:59:23.537Z,14.77
2022-09-15T21:01:55.882Z,14.74
2022-09-15T21:04:28.465Z,14.71
2022-09-15T21:07:00.499Z,14.69
2022-09-15T21:09:32.420Z,14.66
2022-09-15T21:12:04.551Z,14.61
2022-09-15T21:14:36.497Z,14.55
2022-09-15T21:17:08.551Z,14.51
2022-09-15T21:19:40.378Z,14.47
2022-09-15T21:22:12.300Z,14.42
2022-09-15T21:24:44.301Z,14.38
2022-09-15T21:27:28.885Z,14.34
2022-09-15T21:30:00.840Z,14.29
2022-09-15T21:32:34.959Z,14.25
2022-09-15T21:35:10.552Z,14.22
2022-09-15T21:37:42.512Z,14.17
2022-09-15T21:40:14.481Z,14.13
2022-09-15T21:42:46.368Z,14.08
2022-09-15T21:45:19.367Z,14.05
2022-09-15T21:47:51.207Z,14.01
2022-09-15T21:50:23.181Z,13.97
2022-09-15T21:52:54.974Z,13.91
2022-09-15T21:55:26.957Z,13.87
2022-09-15T21:57:59.027Z,13.83
2022-09-15T22:00:30.900Z,13.79
2022-09-15T22:03:02.808Z,13.76
2022-09-15T22:05:34.646Z,13.72
2022-09-15T22:08:08.098Z,13.68
2022-09-15T22:10:40.517Z,13.64
2022-09-15T22:13:13.490Z,13.59
2022-09-15T22:15:45.479Z,13.57
2022-09-15T22:18:17.356Z,13.54
2022-09-15T22:20:49.185Z,13.50
2022-09-15T22:23:21.033Z,13.45
2022-09-15T22:25:53.176Z,13.41
2022-09-15T22:28:25.045Z,13.39
2022-09-15T22:31:01.449Z,13.37
2022-09-15T22:33:33.821Z,13.35
2022-09-15T22:36:07.112Z,13.32
2022-09-15T22:38:39.078Z,13.29
2022-09-15T22:41:13.128Z,13.29
2022-09-15T22:43:48.032Z,13.23
2022-09-15T22:46:20.856Z,13.19
2022-09-15T22:48:52.794Z,13.16
2022-09-15T22:51:24.673Z,13.11
2022-09-15T22:53:57.534Z,13.09
2022-09-15T22:56:29.768Z,13.07
2022-09-15T22:59:02.690Z,13.03
2022-09-15T23:01:34.558Z,12.99
2022-09-15T23:19:53.675Z,12.75
2022-09-15T23:22:25.467Z,12.73
2022-09-15T23:24:57.698Z,12.71
2022-09-15T23:27:29.539Z,12.71
2022-09-15T23:30:01.335Z,12.69
2022-09-15T23:32:33.438Z,12.68
2022-09-15T23:35:05.815Z,12.67
2022-09-15T23:37:37.631Z,12.66
2022-09-15T23:40:10.815Z,12.64
2022-09-15T23:42:42.684Z,12.63
2022-09-15T23:45:14.779Z,12.62
2022-09-15T23:47:46.668Z,12.60
2022-09-15T23:50:18.569Z,12.60
2022-09-15T23:52:50.345Z,12.59
2022-09-15T23:55:22.645Z,12.56
2022-09-15T23:57:54.961Z,12.55
